sensor_id;sensor_type;location;lat;lon;timestamp;P1;durP1;ratioP1;P2;durP2;ratioP2
22234;SDS011;11286;45.596;5.284;2023-04-06T00:01:00;11.02;;;6.57;;
22234;SDS011;11286;45.596;5.284;2023-04-06T00:03:26;9.10;;;7.25;;
22234;SDS011;11286;45.596;5.284;2023-04-06T00:05:51;11.75;;;7.90;;
22234;SDS011;11286;45.596;5.284;2023-04-06T00:08:17;8.48;;;6.65;;
22234;SDS011;11286;45.596;5.284;2023-04-06T00:10:43;8.25;;;6.22;;
22234;SDS011;11286;45.596;5.284;2023-04-06T00:13:09;8.70;;;6.18;;
22234;SDS011;11286;45.596;5.284;2023-04-06T00:15:35;10.82;;;7.30;;
22234;SDS011;11286;45.596;5.284;2023-04-06T00:18:01;11.57;;;7.97;;
22234;SDS011;11286;45.596;5.284;2023-04-06T00:20:27;12.65;;;9.70;;
22234;SDS011;11286;45.596;5.284;2023-04-06T00:22:53;13.23;;;9.25;;
22234;SDS011;11286;45.596;5.284;2023-04-06T00:25:19;12.77;;;9.38;;
22234;SDS011;11286;45.596;5.284;2023-04-06T00:27:45;10.98;;;9.35;;
22234;SDS011;11286;45.596;5.284;2023-04-06T00:30:10;9.23;;;7.50;;
22234;SDS011;11286;45.596;5.284;2023-04-06T00:32:36;9.25;;;7.70;;
22234;SDS011;11286;45.596;5.284;2023-04-06T00:35:02;9.73;;;7.43;;
22234;SDS011;11286;45.596;5.284;2023-04-06T00:37:28;9.05;;;7.82;;
22234;SDS011;11286;45.596;5.284;2023-04-06T00:39:54;9.43;;;7.00;;
22234;SDS011;11286;45.596;5.284;2023-04-06T00:42:20;10.38;;;7.20;;
22234;SDS011;11286;45.596;5.284;2023-04-06T00:45:00;8.68;;;6.93;;
22234;SDS011;11286;45.596;5.284;2023-04-06T00:47:26;9.45;;;6.82;;
22234;SDS011;11286;45.596;5.284;2023-04-06T00:49:56;8.55;;;6.55;;
22234;SDS011;11286;45.596;5.284;2023-04-06T00:52:22;8.55;;;6.68;;
22234;SDS011;11286;45.596;5.284;2023-04-06T00:54:48;8.32;;;6.60;;
22234;SDS011;11286;45.596;5.284;2023-04-06T00:57:14;9.75;;;6.47;;
22234;SDS011;11286;45.596;5.284;2023-04-06T00:59:40;8.55;;;6.50;;
22234;SDS011;11286;45.596;5.284;2023-04-06T01:02:06;10.18;;;7.05;;
22234;SDS011;11286;45.596;5.284;2023-04-06T01:04:32;9.00;;;6.78;;
22234;SDS011;11286;45.596;5.284;2023-04-06T01:06:59;10.73;;;7.07;;
22234;SDS011;11286;45.596;5.284;2023-04-06T01:09:27;10.65;;;6.85;;
22234;SDS011;11286;45.596;5.284;2023-04-06T01:11:55;9.45;;;6.65;;
22234;SDS011;11286;45.596;5.284;2023-04-06T01:14:21;8.15;;;6.28;;
22234;SDS011;11286;45.596;5.284;2023-04-06T01:16:47;7.47;;;6.05;;
22234;SDS011;11286;45.596;5.284;2023-04-06T01:19:13;8.27;;;5.85;;
22234;SDS011;11286;45.596;5.284;2023-04-06T01:21:39;12.60;;;7.20;;
22234;SDS011;11286;45.596;5.284;2023-04-06T01:24:05;9.77;;;6.75;;
22234;SDS011;11286;45.596;5.284;2023-04-06T01:26:32;8.40;;;6.80;;
22234;SDS011;11286;45.596;5.284;2023-04-06T01:29:00;9.18;;;6.82;;
22234;SDS011;11286;45.596;5.284;2023-04-06T01:31:26;9.75;;;7.13;;
22234;SDS011;11286;45.596;5.284;2023-04-06T01:33:52;11.13;;;7.10;;
22234;SDS011;11286;45.596;5.284;2023-04-06T01:36:18;8.05;;;6.78;;
22234;SDS011;11286;45.596;5.284;2023-04-06T01:38:44;9.30;;;7.00;;
22234;SDS011;11286;45.596;5.284;2023-04-06T01:41:10;10.73;;;7.35;;
22234;SDS011;11286;45.596;5.284;2023-04-06T01:43:36;7.70;;;6.45;;
22234;SDS011;11286;45.596;5.284;2023-04-06T01:52:53;8.88;;;7.25;;
22234;SDS011;11286;45.596;5.284;2023-04-06T01:55:19;8.07;;;6.43;;
22234;SDS011;11286;45.596;5.284;2023-04-06T01:57:44;9.30;;;6.88;;
22234;SDS011;11286;45.596;5.284;2023-04-06T02:00:10;8.32;;;6.80;;
22234;SDS011;11286;45.596;5.284;2023-04-06T02:02:36;8.75;;;7.25;;
22234;SDS011;11286;45.596;5.284;2023-04-06T02:05:02;13.30;;;6.90;;
22234;SDS011;11286;45.596;5.284;2023-04-06T02:07:28;9.85;;;6.68;;
22234;SDS011;11286;45.596;5.284;2023-04-06T02:09:54;7.03;;;6.20;;
22234;SDS011;11286;45.596;5.284;2023-04-06T02:12:20;8.90;;;7.22;;
22234;SDS011;11286;45.596;5.284;2023-04-06T02:14:46;9.63;;;7.00;;
22234;SDS011;11286;45.596;5.284;2023-04-06T02:17:12;7.82;;;6.63;;
22234;SDS011;11286;45.596;5.284;2023-04-06T02:19:37;8.77;;;6.82;;
22234;SDS011;11286;45.596;5.284;2023-04-06T02:22:03;9.85;;;7.40;;
22234;SDS011;11286;45.596;5.284;2023-04-06T02:24:28;9.93;;;7.38;;
22234;SDS011;11286;45.596;5.284;2023-04-06T02:26:54;9.50;;;7.10;;
22234;SDS011;11286;45.596;5.284;2023-04-06T02:29:20;8.98;;;7.10;;
22234;SDS011;11286;45.596;5.284;2023-04-06T02:31:46;10.13;;;7.20;;
22234;SDS011;11286;45.596;5.284;2023-04-06T02:34:11;9.63;;;7.32;;
22234;SDS011;11286;45.596;5.284;2023-04-06T02:36:42;9.50;;;6.97;;
22234;SDS011;11286;45.596;5.284;2023-04-06T02:39:11;10.65;;;7.45;;
22234;SDS011;11286;45.596;5.284;2023-04-06T02:41:38;9.38;;;7.05;;
22234;SDS011;11286;45.596;5.284;2023-04-06T02:44:03;9.68;;;6.80;;
22234;SDS011;11286;45.596;5.284;2023-04-06T02:46:31;10.70;;;7.40;;
22234;SDS011;11286;45.596;5.284;2023-04-06T02:48:56;9.60;;;6.97;;
22234;SDS011;11286;45.596;5.284;2023-04-06T02:51:25;11.13;;;7.35;;
22234;SDS011;11286;45.596;5.284;2023-04-06T02:53:51;10.52;;;7.95;;
22234;SDS011;11286;45.596;5.284;2023-04-06T02:56:16;9.95;;;7.43;;
22234;SDS011;11286;45.596;5.284;2023-04-06T02:58:42;9.98;;;7.18;;
22234;SDS011;11286;45.596;5.284;2023-04-06T03:01:08;8.90;;;7.43;;
22234;SDS011;11286;45.596;5.284;2023-04-06T03:03:33;9.50;;;6.80;;
22234;SDS011;11286;45.596;5.284;2023-04-06T03:05:59;9.13;;;7.10;;
22234;SDS011;11286;45.596;5.284;2023-04-06T03:08:25;9.15;;;6.78;;
22234;SDS011;11286;45.596;5.284;2023-04-06T03:10:50;9.80;;;6.60;;
22234;SDS011;11286;45.596;5.284;2023-04-06T03:13:16;9.65;;;6.53;;
22234;SDS011;11286;45.596;5.284;2023-04-06T03:15:42;8.80;;;6.50;;
22234;SDS011;11286;45.596;5.284;2023-04-06T03:18:07;8.55;;;6.35;;
22234;SDS011;11286;45.596;5.284;2023-04-06T03:20:33;10.05;;;6.93;;
22234;SDS011;11286;45.596;5.284;2023-04-06T03:22:58;10.15;;;6.90;;
22234;SDS011;11286;45.596;5.284;2023-04-06T03:25:24;7.72;;;6.30;;
22234;SDS011;11286;45.596;5.284;2023-04-06T03:27:50;9.52;;;7.18;;
22234;SDS011;11286;45.596;5.284;2023-04-06T03:30:16;9.98;;;7.13;;
22234;SDS011;11286;45.596;5.284;2023-04-06T03:32:44;9.98;;;6.78;;
22234;SDS011;11286;45.596;5.284;2023-04-06T03:35:10;8.90;;;6.85;;
22234;SDS011;11286;45.596;5.284;2023-04-06T03:37:35;10.05;;;6.88;;
22234;SDS011;11286;45.596;5.284;2023-04-06T03:40:01;10.55;;;7.47;;
22234;SDS011;11286;45.596;5.284;2023-04-06T03:42:28;10.90;;;7.63;;
22234;SDS011;11286;45.596;5.284;2023-04-06T03:44:53;9.63;;;7.50;;
22234;SDS011;11286;45.596;5.284;2023-04-06T03:47:19;10.77;;;7.63;;
22234;SDS011;11286;45.596;5.284;2023-04-06T03:49:45;13.85;;;7.65;;
22234;SDS011;11286;45.596;5.284;2023-04-06T03:52:11;11.15;;;7.50;;
22234;SDS011;11286;45.596;5.284;2023-04-06T03:54:36;8.57;;;7.10;;
22234;SDS011;11286;45.596;5.284;2023-04-06T03:57:02;9.88;;;7.43;;
22234;SDS011;11286;45.596;5.284;2023-04-06T03:59:28;10.77;;;8.07;;
22234;SDS011;11286;45.596;5.284;2023-04-06T04:01:54;7.95;;;7.15;;
22234;SDS011;11286;45.596;5.284;2023-04-06T04:04:20;8.77;;;7.30;;
22234;SDS011;11286;45.596;5.284;2023-04-06T04:06:46;11.30;;;7.15;;
22234;SDS011;11286;45.596;5.284;2023-04-06T04:09:11;9.93;;;6.68;;
22234;SDS011;11286;45.596;5.284;2023-04-06T04:11:37;7.65;;;6.38;;
22234;SDS011;11286;45.596;5.284;2023-04-06T04:14:03;8.05;;;6.63;;
22234;SDS011;11286;45.596;5.284;2023-04-06T04:16:29;11.52;;;8.15;;
22234;SDS011;11286;45.596;5.284;2023-04-06T04:18:54;10.85;;;7.65;;
22234;SDS011;11286;45.596;5.284;2023-04-06T04:21:20;10.93;;;7.45;;
22234;SDS011;11286;45.596;5.284;2023-04-06T04:23:46;8.80;;;7.57;;
22234;SDS011;11286;45.596;5.284;2023-04-06T04:26:11;11.35;;;7.93;;
22234;SDS011;11286;45.596;5.284;2023-04-06T04:28:37;10.85;;;8.23;;
22234;SDS011;11286;45.596;5.284;2023-04-06T04:31:03;9.45;;;7.68;;
22234;SDS011;11286;45.596;5.284;2023-04-06T04:33:28;12.68;;;7.93;;
22234;SDS011;11286;45.596;5.284;2023-04-06T04:35:54;8.68;;;7.18;;
22234;SDS011;11286;45.596;5.284;2023-04-06T04:38:19;13.35;;;8.25;;
22234;SDS011;11286;45.596;5.284;2023-04-06T04:40:45;10.85;;;7.93;;
22234;SDS011;11286;45.596;5.284;2023-04-06T04:43:11;10.90;;;7.53;;
22234;SDS011;11286;45.596;5.284;2023-04-06T04:45:36;11.32;;;7.75;;
22234;SDS011;11286;45.596;5.284;2023-04-06T04:48:02;11.32;;;7.53;;
22234;SDS011;11286;45.596;5.284;2023-04-06T04:50:29;9.73;;;7.43;;
22234;SDS011;11286;45.596;5.284;2023-04-06T04:52:55;13.40;;;7.97;;
22234;SDS011;11286;45.596;5.284;2023-04-06T04:55:21;10.98;;;7.95;;
22234;SDS011;11286;45.596;5.284;2023-04-06T04:57:46;9.32;;;7.20;;
22234;SDS011;11286;45.596;5.284;2023-04-06T05:00:12;9.27;;;7.82;;
22234;SDS011;11286;45.596;5.284;2023-04-06T05:02:38;8.02;;;7.03;;
22234;SDS011;11286;45.596;5.284;2023-04-06T05:05:04;10.98;;;8.00;;
22234;SDS011;11286;45.596;5.284;2023-04-06T05:07:30;8.35;;;6.85;;
22234;SDS011;11286;45.596;5.284;2023-04-06T05:09:56;10.02;;;7.82;;
22234;SDS011;11286;45.596;5.284;2023-04-06T05:12:21;11.73;;;6.88;;
22234;SDS011;11286;45.596;5.284;2023-04-06T05:14:47;12.93;;;7.82;;
22234;SDS011;11286;45.596;5.284;2023-04-06T05:17:13;11.57;;;7.82;;
22234;SDS011;11286;45.596;5.284;2023-04-06T05:19:38;8.32;;;7.45;;
22234;SDS011;11286;45.596;5.284;2023-04-06T05:22:04;11.18;;;8.65;;
22234;SDS011;11286;45.596;5.284;2023-04-06T05:24:30;11.23;;;9.63;;
22234;SDS011;11286;45.596;5.284;2023-04-06T05:26:55;9.85;;;8.15;;
22234;SDS011;11286;45.596;5.284;2023-04-06T05:29:21;13.10;;;9.60;;
22234;SDS011;11286;45.596;5.284;2023-04-06T05:31:47;14.70;;;8.77;;
22234;SDS011;11286;45.596;5.284;2023-04-06T05:34:12;11.10;;;8.48;;
22234;SDS011;11286;45.596;5.284;2023-04-06T05:36:38;11.15;;;8.70;;
22234;SDS011;11286;45.596;5.284;2023-04-06T05:39:05;13.18;;;8.32;;
22234;SDS011;11286;45.596;5.284;2023-04-06T05:41:31;12.18;;;8.65;;
22234;SDS011;11286;45.596;5.284;2023-04-06T05:43:57;11.27;;;8.65;;
22234;SDS011;11286;45.596;5.284;2023-04-06T05:46:23;11.35;;;8.32;;
22234;SDS011;11286;45.596;5.284;2023-04-06T05:48:48;12.00;;;8.20;;
22234;SDS011;11286;45.596;5.284;2023-04-06T05:51:14;12.88;;;8.18;;
22234;SDS011;11286;45.596;5.284;2023-04-06T05:53:40;11.65;;;7.53;;
22234;SDS011;11286;45.596;5.284;2023-04-06T05:56:06;13.15;;;8.05;;
22234;SDS011;11286;45.596;5.284;2023-04-06T05:58:32;9.93;;;7.90;;
22234;SDS011;11286;45.596;5.284;2023-04-06T06:01:00;12.57;;;8.35;;
22234;SDS011;11286;45.596;5.284;2023-04-06T06:03:27;10.90;;;7.97;;
22234;SDS011;11286;45.596;5.284;2023-04-06T06:05:58;13.70;;;7.78;;
22234;SDS011;11286;45.596;5.284;2023-04-06T06:08:25;12.63;;;7.57;;
22234;SDS011;11286;45.596;5.284;2023-04-06T06:10:51;11.13;;;8.07;;
22234;SDS011;11286;45.596;5.284;2023-04-06T06:13:16;10.57;;;7.82;;
22234;SDS011;11286;45.596;5.284;2023-04-06T06:15:42;13.15;;;8.27;;
22234;SDS011;11286;45.596;5.284;2023-04-06T06:18:08;14.63;;;8.75;;
22234;SDS011;11286;45.596;5.284;2023-04-06T06:20:33;11.27;;;8.77;;
22234;SDS011;11286;45.596;5.284;2023-04-06T06:22:59;11.38;;;8.20;;
22234;SDS011;11286;45.596;5.284;2023-04-06T06:25:25;13.23;;;8.88;;
22234;SDS011;11286;45.596;5.284;2023-04-06T06:27:51;12.13;;;8.95;;
22234;SDS011;11286;45.596;5.284;2023-04-06T06:30:16;12.82;;;9.05;;
22234;SDS011;11286;45.596;5.284;2023-04-06T06:32:42;17.02;;;9.82;;
22234;SDS011;11286;45.596;5.284;2023-04-06T06:35:09;12.52;;;8.75;;
22234;SDS011;11286;45.596;5.284;2023-04-06T06:37:35;12.85;;;8.82;;
22234;SDS011;11286;45.596;5.284;2023-04-06T06:40:00;18.63;;;9.05;;
22234;SDS011;11286;45.596;5.284;2023-04-06T06:42:26;13.10;;;8.85;;
22234;SDS011;11286;45.596;5.284;2023-04-06T06:44:51;12.85;;;8.70;;
22234;SDS011;11286;45.596;5.284;2023-04-06T06:47:17;9.98;;;8.05;;
22234;SDS011;11286;45.596;5.284;2023-04-06T06:49:43;11.00;;;8.07;;
22234;SDS011;11286;45.596;5.284;2023-04-06T06:52:09;15.10;;;9.10;;
22234;SDS011;11286;45.596;5.284;2023-04-06T06:54:34;13.20;;;8.98;;
22234;SDS011;11286;45.596;5.284;2023-04-06T06:57:00;11.52;;;7.53;;
22234;SDS011;11286;45.596;5.284;2023-04-06T06:59:26;11.77;;;8.52;;
22234;SDS011;11286;45.596;5.284;2023-04-06T07:01:52;13.95;;;8.55;;
22234;SDS011;11286;45.596;5.284;2023-04-06T07:04:17;18.38;;;9.05;;
22234;SDS011;11286;45.596;5.284;2023-04-06T07:06:43;15.52;;;9.95;;
22234;SDS011;11286;45.596;5.284;2023-04-06T07:09:08;17.52;;;10.27;;
22234;SDS011;11286;45.596;5.284;2023-04-06T07:11:34;18.05;;;10.25;;
22234;SDS011;11286;45.596;5.284;2023-04-06T07:14:00;15.75;;;9.85;;
22234;SDS011;11286;45.596;5.284;2023-04-06T07:16:26;18.00;;;10.02;;
22234;SDS011;11286;45.596;5.284;2023-04-06T07:19:00;13.52;;;9.00;;
22234;SDS011;11286;45.596;5.284;2023-04-06T07:21:25;13.95;;;9.70;;
22234;SDS011;11286;45.596;5.284;2023-04-06T07:23:51;12.38;;;8.00;;
22234;SDS011;11286;45.596;5.284;2023-04-06T07:26:17;17.73;;;9.70;;
22234;SDS011;11286;45.596;5.284;2023-04-06T07:28:42;15.93;;;9.48;;
22234;SDS011;11286;45.596;5.284;2023-04-06T07:31:08;11.98;;;8.82;;
22234;SDS011;11286;45.596;5.284;2023-04-06T07:33:34;15.05;;;8.23;;
22234;SDS011;11286;45.596;5.284;2023-04-06T07:36:00;13.25;;;9.23;;
22234;SDS011;11286;45.596;5.284;2023-04-06T07:38:25;12.75;;;9.10;;
22234;SDS011;11286;45.596;5.284;2023-04-06T07:40:51;18.15;;;11.55;;
22234;SDS011;11286;45.596;5.284;2023-04-06T07:43:17;19.52;;;11.85;;
22234;SDS011;11286;45.596;5.284;2023-04-06T07:45:42;15.27;;;12.10;;
22234;SDS011;11286;45.596;5.284;2023-04-06T07:48:08;14.00;;;12.43;;
22234;SDS011;11286;45.596;5.284;2023-04-06T07:50:34;16.67;;;11.85;;
22234;SDS011;11286;45.596;5.284;2023-04-06T07:53:00;19.67;;;11.88;;
22234;SDS011;11286;45.596;5.284;2023-04-06T07:55:26;16.60;;;11.10;;
22234;SDS011;11286;45.596;5.284;2023-04-06T07:57:52;13.63;;;11.05;;
22234;SDS011;11286;45.596;5.284;2023-04-06T08:00:17;17.35;;;10.75;;
22234;SDS011;11286;45.596;5.284;2023-04-06T08:02:43;13.23;;;10.38;;
22234;SDS011;11286;45.596;5.284;2023-04-06T08:05:09;13.25;;;10.32;;
22234;SDS011;11286;45.596;5.284;2023-04-06T08:07:34;13.98;;;10.43;;
22234;SDS011;11286;45.596;5.284;2023-04-06T08:10:01;11.95;;;9.60;;
22234;SDS011;11286;45.596;5.284;2023-04-06T08:12:27;14.20;;;9.88;;
22234;SDS011;11286;45.596;5.284;2023-04-06T08:14:52;12.55;;;9.85;;
22234;SDS011;11286;45.596;5.284;2023-04-06T08:17:18;16.17;;;9.73;;
22234;SDS011;11286;45.596;5.284;2023-04-06T08:19:44;13.73;;;9.60;;
22234;SDS011;11286;45.596;5.284;2023-04-06T08:22:10;11.25;;;10.05;;
22234;SDS011;11286;45.596;5.284;2023-04-06T08:24:36;13.90;;;10.13;;
22234;SDS011;11286;45.596;5.284;2023-04-06T08:27:02;13.70;;;10.68;;
22234;SDS011;11286;45.596;5.284;2023-04-06T08:29:28;14.13;;;10.10;;
22234;SDS011;11286;45.596;5.284;2023-04-06T08:31:53;11.75;;;9.80;;
22234;SDS011;11286;45.596;5.284;2023-04-06T08:34:20;12.98;;;10.05;;
22234;SDS011;11286;45.596;5.284;2023-04-06T08:36:46;10.45;;;9.23;;
22234;SDS011;11286;45.596;5.284;2023-04-06T08:39:12;13.23;;;9.70;;
22234;SDS011;11286;45.596;5.284;2023-04-06T08:41:37;13.48;;;9.82;;
22234;SDS011;11286;45.596;5.284;2023-04-06T08:44:06;13.30;;;9.90;;
22234;SDS011;11286;45.596;5.284;2023-04-06T08:46:31;12.90;;;9.18;;
22234;SDS011;11286;45.596;5.284;2023-04-06T08:48:58;11.27;;;10.02;;
22234;SDS011;11286;45.596;5.284;2023-04-06T08:51:25;13.23;;;10.45;;
22234;SDS011;11286;45.596;5.284;2023-04-06T08:53:55;14.55;;;9.82;;
22234;SDS011;11286;45.596;5.284;2023-04-06T08:56:25;11.43;;;9.10;;
22234;SDS011;11286;45.596;5.284;2023-04-06T08:58:53;11.25;;;9.43;;
22234;SDS011;11286;45.596;5.284;2023-04-06T09:01:23;13.40;;;9.18;;
22234;SDS011;11286;45.596;5.284;2023-04-06T09:03:55;10.82;;;9.18;;
22234;SDS011;11286;45.596;5.284;2023-04-06T09:06:25;12.15;;;9.48;;
22234;SDS011;11286;45.596;5.284;2023-04-06T09:08:55;11.20;;;9.23;;
22234;SDS011;11286;45.596;5.284;2023-04-06T09:11:23;11.85;;;9.23;;
22234;SDS011;11286;45.596;5.284;2023-04-06T09:13:50;11.55;;;8.85;;
22234;SDS011;11286;45.596;5.284;2023-04-06T09:16:17;12.20;;;8.65;;
22234;SDS011;11286;45.596;5.284;2023-04-06T09:18:43;11.68;;;7.07;;
22234;SDS011;11286;45.596;5.284;2023-04-06T09:21:09;12.30;;;6.78;;
22234;SDS011;11286;45.596;5.284;2023-04-06T09:23:35;8.98;;;6.85;;
22234;SDS011;11286;45.596;5.284;2023-04-06T09:26:17;11.18;;;6.85;;
22234;SDS011;11286;45.596;5.284;2023-04-06T09:28:55;10.02;;;6.00;;
22234;SDS011;11286;45.596;5.284;2023-04-06T09:31:26;8.07;;;6.55;;
22234;SDS011;11286;45.596;5.284;2023-04-06T09:33:53;8.45;;;6.22;;
22234;SDS011;11286;45.596;5.284;2023-04-06T09:36:19;8.52;;;6.47;;
22234;SDS011;11286;45.596;5.284;2023-04-06T09:38:56;6.97;;;5.30;;
22234;SDS011;11286;45.596;5.284;2023-04-06T09:41:24;7.20;;;6.05;;
22234;SDS011;11286;45.596;5.284;2023-04-06T09:44:12;6.28;;;5.20;;
22234;SDS011;11286;45.596;5.284;2023-04-06T09:46:39;7.85;;;5.25;;
22234;SDS011;11286;45.596;5.284;2023-04-06T09:49:06;6.30;;;5.18;;
22234;SDS011;11286;45.596;5.284;2023-04-06T09:51:36;6.60;;;5.15;;
22234;SDS011;11286;45.596;5.284;2023-04-06T09:54:03;9.45;;;5.70;;
22234;SDS011;11286;45.596;5.284;2023-04-06T09:56:43;7.05;;;5.25;;
22234;SDS011;11286;45.596;5.284;2023-04-06T09:59:13;6.47;;;5.50;;
22234;SDS011;11286;45.596;5.284;2023-04-06T10:01:44;7.88;;;5.22;;
22234;SDS011;11286;45.596;5.284;2023-04-06T10:06:57;7.53;;;5.93;;
22234;SDS011;11286;45.596;5.284;2023-04-06T10:09:24;7.45;;;5.68;;
22234;SDS011;11286;45.596;5.284;2023-04-06T10:11:53;6.75;;;5.78;;
22234;SDS011;11286;45.596;5.284;2023-04-06T10:14:19;7.63;;;5.75;;
22234;SDS011;11286;45.596;5.284;2023-04-06T10:16:45;6.80;;;6.20;;
22234;SDS011;11286;45.596;5.284;2023-04-06T10:19:16;6.97;;;5.60;;
22234;SDS011;11286;45.596;5.284;2023-04-06T10:21:47;6.05;;;5.50;;
22234;SDS011;11286;45.596;5.284;2023-04-06T10:24:16;7.82;;;5.65;;
22234;SDS011;11286;45.596;5.284;2023-04-06T10:26:42;8.40;;;6.07;;
22234;SDS011;11286;45.596;5.284;2023-04-06T10:29:07;6.72;;;6.03;;
22234;SDS011;11286;45.596;5.284;2023-04-06T10:31:39;7.72;;;5.43;;
22234;SDS011;11286;45.596;5.284;2023-04-06T10:34:06;7.80;;;6.07;;
22234;SDS011;11286;45.596;5.284;2023-04-06T10:36:33;6.85;;;5.60;;
22234;SDS011;11286;45.596;5.284;2023-04-06T10:39:03;6.90;;;5.38;;
22234;SDS011;11286;45.596;5.284;2023-04-06T10:41:45;7.72;;;6.05;;
22234;SDS011;11286;45.596;5.284;2023-04-06T10:44:22;6.45;;;5.57;;
22234;SDS011;11286;45.596;5.284;2023-04-06T10:46:52;6.72;;;5.25;;
22234;SDS011;11286;45.596;5.284;2023-04-06T10:49:20;6.07;;;5.47;;
22234;SDS011;11286;45.596;5.284;2023-04-06T10:51:50;6.72;;;5.55;;
22234;SDS011;11286;45.596;5.284;2023-04-06T10:54:18;5.82;;;5.22;;
22234;SDS011;11286;45.596;5.284;2023-04-06T10:56:46;5.97;;;5.38;;
22234;SDS011;11286;45.596;5.284;2023-04-06T10:59:12;7.47;;;5.70;;
22234;SDS011;11286;45.596;5.284;2023-04-06T11:01:37;6.00;;;5.22;;
22234;SDS011;11286;45.596;5.284;2023-04-06T11:04:03;7.75;;;5.57;;
22234;SDS011;11286;45.596;5.284;2023-04-06T11:06:29;6.50;;;5.35;;
22234;SDS011;11286;45.596;5.284;2023-04-06T11:08:56;5.47;;;4.97;;
22234;SDS011;11286;45.596;5.284;2023-04-06T11:11:23;8.80;;;5.75;;
22234;SDS011;11286;45.596;5.284;2023-04-06T11:16:21;6.18;;;5.20;;
22234;SDS011;11286;45.596;5.284;2023-04-06T11:18:55;6.97;;;5.40;;
22234;SDS011;11286;45.596;5.284;2023-04-06T11:24:10;6.25;;;5.57;;
22234;SDS011;11286;45.596;5.284;2023-04-06T11:29:14;6.38;;;4.95;;
22234;SDS011;11286;45.596;5.284;2023-04-06T11:31:42;7.20;;;5.55;;
22234;SDS011;11286;45.596;5.284;2023-04-06T11:34:20;8.25;;;5.55;;
22234;SDS011;11286;45.596;5.284;2023-04-06T11:36:48;6.30;;;5.43;;
22234;SDS011;11286;45.596;5.284;2023-04-06T11:39:19;6.25;;;5.65;;
22234;SDS011;11286;45.596;5.284;2023-04-06T11:41:49;6.03;;;5.35;;
22234;SDS011;11286;45.596;5.284;2023-04-06T11:44:28;5.85;;;4.95;;
22234;SDS011;11286;45.596;5.284;2023-04-06T11:46:57;6.53;;;5.32;;
22234;SDS011;11286;45.596;5.284;2023-04-06T11:49:27;5.80;;;4.88;;
22234;SDS011;11286;45.596;5.284;2023-04-06T11:51:56;6.63;;;5.20;;
22234;SDS011;11286;45.596;5.284;2023-04-06T11:54:30;6.55;;;4.72;;
22234;SDS011;11286;45.596;5.284;2023-04-06T11:56:56;7.40;;;5.47;;
22234;SDS011;11286;45.596;5.284;2023-04-06T11:59:22;6.18;;;5.28;;
22234;SDS011;11286;45.596;5.284;2023-04-06T12:01:47;5.53;;;5.00;;
22234;SDS011;11286;45.596;5.284;2023-04-06T12:04:13;7.80;;;5.40;;
22234;SDS011;11286;45.596;5.284;2023-04-06T12:06:39;8.68;;;5.53;;
22234;SDS011;11286;45.596;5.284;2023-04-06T12:09:05;7.03;;;6.07;;
22234;SDS011;11286;45.596;5.284;2023-04-06T12:11:30;8.93;;;6.70;;
22234;SDS011;11286;45.596;5.284;2023-04-06T12:13:56;6.90;;;6.15;;
22234;SDS011;11286;45.596;5.284;2023-04-06T12:16:22;7.15;;;5.60;;
22234;SDS011;11286;45.596;5.284;2023-04-06T12:18:47;5.97;;;5.38;;
22234;SDS011;11286;45.596;5.284;2023-04-06T12:21:13;7.78;;;6.00;;
22234;SDS011;11286;45.596;5.284;2023-04-06T12:23:39;8.73;;;6.55;;
22234;SDS011;11286;45.596;5.284;2023-04-06T12:26:04;7.22;;;5.72;;
22234;SDS011;11286;45.596;5.284;2023-04-06T12:28:30;7.60;;;5.50;;
22234;SDS011;11286;45.596;5.284;2023-04-06T12:30:56;5.75;;;5.18;;
22234;SDS011;11286;45.596;5.284;2023-04-06T12:33:21;5.93;;;5.30;;
22234;SDS011;11286;45.596;5.284;2023-04-06T12:35:47;7.10;;;5.50;;
22234;SDS011;11286;45.596;5.284;2023-04-06T12:38:13;7.45;;;6.28;;
22234;SDS011;11286;45.596;5.284;2023-04-06T12:40:38;9.10;;;6.03;;
22234;SDS011;11286;45.596;5.284;2023-04-06T12:43:04;6.78;;;5.95;;
22234;SDS011;11286;45.596;5.284;2023-04-06T12:45:31;6.85;;;5.97;;
22234;SDS011;11286;45.596;5.284;2023-04-06T12:47:56;8.32;;;5.45;;
22234;SDS011;11286;45.596;5.284;2023-04-06T12:50:23;9.10;;;6.10;;
22234;SDS011;11286;45.596;5.284;2023-04-06T12:52:48;7.35;;;6.03;;
22234;SDS011;11286;45.596;5.284;2023-04-06T12:55:14;7.13;;;5.60;;
22234;SDS011;11286;45.596;5.284;2023-04-06T12:57:40;7.35;;;6.10;;
22234;SDS011;11286;45.596;5.284;2023-04-06T13:00:06;6.70;;;6.00;;
22234;SDS011;11286;45.596;5.284;2023-04-06T13:02:32;7.80;;;5.45;;
22234;SDS011;11286;45.596;5.284;2023-04-06T13:04:58;10.80;;;6.40;;
22234;SDS011;11286;45.596;5.284;2023-04-06T13:07:25;6.13;;;5.50;;
22234;SDS011;11286;45.596;5.284;2023-04-06T13:09:51;5.13;;;4.63;;
22234;SDS011;11286;45.596;5.284;2023-04-06T13:12:17;5.10;;;4.20;;
22234;SDS011;11286;45.596;5.284;2023-04-06T13:14:43;5.90;;;4.93;;
22234;SDS011;11286;45.596;5.284;2023-04-06T13:17:09;6.70;;;4.82;;
22234;SDS011;11286;45.596;5.284;2023-04-06T13:19:35;7.25;;;5.03;;
22234;SDS011;11286;45.596;5.284;2023-04-06T13:22:01;6.95;;;4.85;;
22234;SDS011;11286;45.596;5.284;2023-04-06T13:24:26;6.90;;;5.00;;
22234;SDS011;11286;45.596;5.284;2023-04-06T13:26:53;6.07;;;4.85;;
22234;SDS011;11286;45.596;5.284;2023-04-06T13:29:18;6.85;;;4.63;;
22234;SDS011;11286;45.596;5.284;2023-04-06T13:31:44;6.22;;;4.90;;
22234;SDS011;11286;45.596;5.284;2023-04-06T13:34:09;5.72;;;4.55;;
22234;SDS011;11286;45.596;5.284;2023-04-06T13:36:35;6.30;;;4.70;;
22234;SDS011;11286;45.596;5.284;2023-04-06T13:39:01;5.18;;;4.28;;
22234;SDS011;11286;45.596;5.284;2023-04-06T13:41:26;5.47;;;4.25;;
22234;SDS011;11286;45.596;5.284;2023-04-06T13:43:52;4.80;;;4.20;;
22234;SDS011;11286;45.596;5.284;2023-04-06T13:46:18;5.05;;;4.40;;
22234;SDS011;11286;45.596;5.284;2023-04-06T13:48:44;4.80;;;4.30;;
22234;SDS011;11286;45.596;5.284;2023-04-06T13:51:10;5.28;;;4.05;;
22234;SDS011;11286;45.596;5.284;2023-04-06T13:53:36;5.47;;;4.30;;
22234;SDS011;11286;45.596;5.284;2023-04-06T13:56:02;6.78;;;4.38;;
22234;SDS011;11286;45.596;5.284;2023-04-06T13:58:28;6.35;;;4.47;;
22234;SDS011;11286;45.596;5.284;2023-04-06T14:00:54;5.25;;;3.60;;
22234;SDS011;11286;45.596;5.284;2023-04-06T14:03:20;3.90;;;3.50;;
22234;SDS011;11286;45.596;5.284;2023-04-06T14:05:47;5.65;;;3.80;;
22234;SDS011;11286;45.596;5.284;2023-04-06T14:08:13;4.88;;;3.60;;
22234;SDS011;11286;45.596;5.284;2023-04-06T14:10:38;4.15;;;3.17;;
22234;SDS011;11286;45.596;5.284;2023-04-06T14:13:07;3.22;;;2.92;;
22234;SDS011;11286;45.596;5.284;2023-04-06T14:15:33;6.35;;;3.00;;
22234;SDS011;11286;45.596;5.284;2023-04-06T14:18:00;3.65;;;2.67;;
22234;SDS011;11286;45.596;5.284;2023-04-06T14:20:26;4.18;;;2.80;;
22234;SDS011;11286;45.596;5.284;2023-04-06T14:22:52;3.53;;;2.70;;
22234;SDS011;11286;45.596;5.284;2023-04-06T14:25:19;3.78;;;2.92;;
22234;SDS011;11286;45.596;5.284;2023-04-06T14:27:45;4.30;;;2.60;;
22234;SDS011;11286;45.596;5.284;2023-04-06T14:30:11;3.38;;;2.63;;
22234;SDS011;11286;45.596;5.284;2023-04-06T14:32:37;3.08;;;2.47;;
22234;SDS011;11286;45.596;5.284;2023-04-06T14:35:03;2.40;;;2.00;;
22234;SDS011;11286;45.596;5.284;2023-04-06T14:37:29;2.88;;;2.45;;
22234;SDS011;11286;45.596;5.284;2023-04-06T14:39:55;2.42;;;2.13;;
22234;SDS011;11286;45.596;5.284;2023-04-06T14:42:20;3.20;;;2.40;;
22234;SDS011;11286;45.596;5.284;2023-04-06T14:44:46;4.43;;;2.25;;
22234;SDS011;11286;45.596;5.284;2023-04-06T14:47:13;2.60;;;2.30;;
22234;SDS011;11286;45.596;5.284;2023-04-06T14:49:45;3.15;;;2.35;;
22234;SDS011;11286;45.596;5.284;2023-04-06T14:52:14;2.83;;;2.00;;
22234;SDS011;11286;45.596;5.284;2023-04-06T14:54:40;2.70;;;2.10;;